BXS1010 LFPG-LEPA
Flight info
| Callsign | BXS1010 |
|---|---|
| Flight time | N/A |
| Altitude | 37000 |
| Route | ERIXU DCT ETAMO DCT VALKU DCT ATSUP DCT MINSO DCT DEGOL DCT PPG DCT ALBER DCT GIR DCT NENDA DCT KUREG DCT LORES |
| Aircraft | A319/M-SDE3FGHIRWY/LB1 |
Departure
| Time | 2026-04-30 14:43 |
|---|---|
| Airport | Charles de Gaulle International Airport (LFPG) |
Arrival
| Time | N/A |
|---|---|
| Airport | Palma de Mallorca Airport (LEPA) |
| Time | Latitude | Longitude | Altitude | Speed | Heading |
|---|---|---|---|---|---|
| 2026-04-30 14:24 | 49.00195 | 2.56663 | 353 ft | 0 kts | 11° |
| 2026-04-30 14:35 | 49.00186 | 2.56661 | 359 ft | 0 kts | 11° |
| 2026-04-30 14:37 | 49.00178 | 2.56658 | 359 ft | 0 kts | 11° |
| 2026-04-30 14:38 | 49.00124 | 2.56642 | 363 ft | 0 kts | 261° |
| 2026-04-30 14:38 | 49.00115 | 2.56644 | 357 ft | 0 kts | 265° |
| 2026-04-30 14:39 | 49.00109 | 2.56608 | 356 ft | 7 kts | 248° |
| 2026-04-30 14:39 | 49.00049 | 2.56570 | 353 ft | 11 kts | 178° |
| 2026-04-30 14:40 | 48.99916 | 2.56505 | 361 ft | 14 kts | 261° |
| 2026-04-30 14:40 | 48.99906 | 2.56343 | 354 ft | 17 kts | 253° |
| 2026-04-30 14:40 | 48.99819 | 2.56215 | 358 ft | 19 kts | 237° |
| 2026-04-30 14:40 | 48.99800 | 2.56008 | 357 ft | 21 kts | 267° |
| 2026-04-30 14:41 | 48.99766 | 2.55797 | 361 ft | 21 kts | 246° |
| 2026-04-30 14:41 | 48.99745 | 2.55587 | 354 ft | 20 kts | 266° |
| 2026-04-30 14:41 | 48.99736 | 2.55379 | 354 ft | 20 kts | 265° |
| 2026-04-30 14:41 | 48.99724 | 2.55175 | 354 ft | 18 kts | 266° |
| 2026-04-30 14:42 | 48.99678 | 2.55074 | 361 ft | 14 kts | 133° |
| 2026-04-30 14:42 | 48.99645 | 2.55184 | 356 ft | 10 kts | 115° |
| 2026-04-30 14:42 | 48.99608 | 2.55295 | 357 ft | 14 kts | 117° |
| 2026-04-30 14:42 | 48.99580 | 2.55463 | 352 ft | 17 kts | 88° |
| 2026-04-30 14:43 | 48.99592 | 2.55709 | 353 ft | 45 kts | 85° |
| 2026-04-30 14:43 | 48.99637 | 2.56552 | 355 ft | 110 kts | 85° |
| 2026-04-30 14:43 | 48.99714 | 2.57984 | 418 ft | 154 kts | 85° |
| 2026-04-30 14:43 | 48.99815 | 2.59633 | 1030 ft | 157 kts | 85° |
| 2026-04-30 14:44 | 48.99902 | 2.61286 | 1818 ft | 157 kts | 87° |
| 2026-04-30 14:44 | 48.99987 | 2.62965 | 2400 ft | 166 kts | 86° |
| 2026-04-30 14:44 | 49.00083 | 2.64839 | 2772 ft | 189 kts | 88° |
| 2026-04-30 14:44 | 49.00189 | 2.66949 | 3271 ft | 210 kts | 87° |
| 2026-04-30 14:45 | 49.00310 | 2.69289 | 3732 ft | 234 kts | 87° |
| 2026-04-30 14:45 | 49.00436 | 2.71756 | 4448 ft | 248 kts | 87° |
| 2026-04-30 14:45 | 49.00575 | 2.74454 | 5378 ft | 256 kts | 89° |
| 2026-04-30 14:45 | 49.00709 | 2.77152 | 6290 ft | 262 kts | 90° |
| 2026-04-30 14:46 | 49.00588 | 2.79938 | 7133 ft | 268 kts | 99° |
| 2026-04-30 14:46 | 49.00315 | 2.82768 | 8034 ft | 272 kts | 102° |
| 2026-04-30 14:46 | 48.99998 | 2.85618 | 8957 ft | 274 kts | 102° |
| 2026-04-30 14:46 | 48.99780 | 2.87509 | 9544 ft | 277 kts | 102° |
| 2026-04-30 14:47 | 48.99330 | 2.91435 | 10546 ft | 289 kts | 102° |
| 2026-04-30 14:47 | 48.98978 | 2.94566 | 10892 ft | 310 kts | 101° |
| 2026-04-30 14:47 | 48.98446 | 2.97776 | 11545 ft | 316 kts | 115° |
| 2026-04-30 14:47 | 48.97208 | 3.00534 | 12292 ft | 320 kts | 135° |
| 2026-04-30 14:48 | 48.95347 | 3.02409 | 13072 ft | 326 kts | 156° |
| 2026-04-30 14:48 | 48.93112 | 3.03072 | 13837 ft | 334 kts | 179° |
| 2026-04-30 14:48 | 48.90818 | 3.02327 | 14509 ft | 345 kts | 202° |
| 2026-04-30 14:48 | 48.88859 | 3.00163 | 15156 ft | 356 kts | 226° |
| 2026-04-30 14:49 | 48.87931 | 2.98026 | 15594 ft | 364 kts | 243° |
| 2026-04-30 14:49 | 48.87144 | 2.93302 | 16420 ft | 372 kts | 258° |
| 2026-04-30 14:49 | 48.86722 | 2.89412 | 17108 ft | 375 kts | 259° |
| 2026-04-30 14:49 | 48.86332 | 2.85474 | 17774 ft | 378 kts | 259° |
| 2026-04-30 14:50 | 48.85546 | 2.77450 | 18992 ft | 386 kts | 259° |
| 2026-04-30 14:50 | 48.85129 | 2.73396 | 19561 ft | 390 kts | 259° |
| 2026-04-30 14:51 | 48.84187 | 2.65214 | 20649 ft | 396 kts | 252° |
| 2026-04-30 14:51 | 48.83225 | 2.61298 | 21193 ft | 397 kts | 241° |
| 2026-04-30 14:51 | 48.80216 | 2.54358 | 22227 ft | 401 kts | 231° |
| 2026-04-30 14:52 | 48.78589 | 2.50899 | 22755 ft | 405 kts | 231° |
| 2026-04-30 14:52 | 48.75293 | 2.43865 | 23816 ft | 412 kts | 231° |
| 2026-04-30 14:52 | 48.73495 | 2.40502 | 24263 ft | 411 kts | 222° |
| 2026-04-30 14:53 | 48.68973 | 2.35327 | 25172 ft | 407 kts | 206° |
| 2026-04-30 14:53 | 48.67356 | 2.33871 | 25471 ft | 409 kts | 206° |
| 2026-04-30 14:54 | 48.62443 | 2.29464 | 26349 ft | 413 kts | 206° |
| 2026-04-30 14:54 | 48.57609 | 2.25137 | 27191 ft | 417 kts | 207° |
| 2026-04-30 14:55 | 48.52473 | 2.21062 | 28019 ft | 417 kts | 196° |
| 2026-04-30 14:55 | 48.49692 | 2.19928 | 28441 ft | 414 kts | 186° |
| 2026-04-30 14:55 | 48.43020 | 2.19806 | 29368 ft | 415 kts | 174° |
| 2026-04-30 14:56 | 48.38170 | 2.20208 | 29999 ft | 419 kts | 174° |
| 2026-04-30 14:56 | 48.32315 | 2.20683 | 30657 ft | 424 kts | 174° |
| 2026-04-30 14:57 | 48.29364 | 2.20945 | 30956 ft | 426 kts | 172° |
| 2026-04-30 14:57 | 48.23493 | 2.22296 | 31534 ft | 429 kts | 169° |
| 2026-04-30 14:58 | 48.17540 | 2.23636 | 31980 ft | 437 kts | 172° |
| 2026-04-30 14:58 | 48.14494 | 2.24071 | 32237 ft | 440 kts | 174° |
| 2026-04-30 14:58 | 48.08374 | 2.24635 | 32957 ft | 441 kts | 175° |
| 2026-04-30 14:59 | 48.02265 | 2.25185 | 33729 ft | 439 kts | 174° |
| 2026-04-30 15:00 | 47.93140 | 2.26224 | 34752 ft | 438 kts | 174° |
| 2026-04-30 15:00 | 47.87066 | 2.26955 | 35355 ft | 438 kts | 174° |
| 2026-04-30 15:01 | 47.80980 | 2.27661 | 35914 ft | 439 kts | 174° |
| 2026-04-30 15:01 | 47.77933 | 2.28004 | 36181 ft | 439 kts | 174° |
| 2026-04-30 15:01 | 47.71848 | 2.28679 | 36693 ft | 439 kts | 175° |
| 2026-04-30 15:02 | 47.68757 | 2.29026 | 36940 ft | 439 kts | 174° |
| 2026-04-30 15:02 | 47.65706 | 2.29374 | 37079 ft | 440 kts | 174° |
| 2026-04-30 15:03 | 47.50434 | 2.31109 | 37095 ft | 440 kts | 175° |
| 2026-04-30 15:04 | 47.35144 | 2.32830 | 37095 ft | 441 kts | 175° |
| 2026-04-30 15:06 | 47.19832 | 2.34545 | 37084 ft | 442 kts | 175° |
| 2026-04-30 15:07 | 47.07552 | 2.35910 | 37082 ft | 443 kts | 175° |
| 2026-04-30 15:08 | 46.95270 | 2.37274 | 37089 ft | 443 kts | 175° |
| 2026-04-30 15:09 | 46.79917 | 2.38963 | 37097 ft | 443 kts | 175° |
| 2026-04-30 15:10 | 46.67594 | 2.40320 | 37102 ft | 442 kts | 175° |
| 2026-04-30 15:11 | 46.49179 | 2.42311 | 37102 ft | 442 kts | 175° |
| 2026-04-30 15:13 | 46.33830 | 2.43981 | 37100 ft | 442 kts | 175° |
| 2026-04-30 15:14 | 46.12357 | 2.46286 | 37111 ft | 442 kts | 176° |
| 2026-04-30 15:17 | 45.84758 | 2.49231 | 37118 ft | 441 kts | 176° |
| 2026-04-30 15:19 | 45.60269 | 2.51817 | 37125 ft | 441 kts | 176° |